Time;durP1;ratioP1;P1;durP2;ratioP2;P2;SDS_P1;SDS_P2;PMS_P1;PMS_P2;Temp;Humidity;BMP_temperature;BMP_pressure;BME280_temperature;BME280_humidity;BME280_pressure;Samples;Min_cycle;Max_cycle;Signal;HPM_P1;HPM_P2
2023/10/11 00:00:39;;;;;;;9.02;3.17;;;;;;;25.19;41.89;101311.03;4977148;28;20403;-62
2023/10/11 00:03:05;;;;;;;5.95;3.28;;;;;;;25.19;42.25;101309.16;4992592;28;20034;-62
2023/10/11 00:05:37;;;;;;;8.48;3.10;;;;;;;25.18;41.83;101314.84;4977464;28;20085;-62
2023/10/11 00:08:03;;;;;;;7.53;2.80;;;;;;;25.16;41.92;101312.31;4976033;28;20034;-61
2023/10/11 00:10:29;;;;;;;13.75;3.88;;;;;;;25.18;41.85;101320.34;4992197;28;20510;-61
2023/10/11 00:12:58;;;;;;;8.43;2.47;;;;;;;25.15;42.21;101315.28;4976008;28;20049;-62
2023/10/11 00:15:36;;;;;;;8.65;2.95;;;;;;;25.12;42.21;101300.09;4976011;28;20042;-62
2023/10/11 00:18:01;;;;;;;4.55;2.70;;;;;;;25.08;42.07;101303.44;4975789;28;20122;-62
2023/10/11 00:20:34;;;;;;;6.85;2.95;;;;;;;25.05;42.37;101303.88;4992256;28;20047;-61
2023/10/11 00:23:00;;;;;;;6.80;3.47;;;;;;;25.01;42.41;101302.63;4977045;28;20035;-61
2023/10/11 00:25:26;;;;;;;5.22;2.80;;;;;;;25.00;42.27;101298.19;4975608;28;20039;-61
2023/10/11 00:27:52;;;;;;;6.70;3.33;;;;;;;24.96;42.26;101295.03;4991965;28;20127;-61
2023/10/11 00:30:19;;;;;;;10.02;2.40;;;;;;;24.98;42.74;101289.34;4991896;28;20087;-61
2023/10/11 00:32:47;;;;;;;10.10;2.67;;;;;;;24.95;42.37;101285.13;4975717;28;20038;-61
2023/10/11 00:35:18;;;;;;;10.13;3.30;;;;;;;24.93;42.34;101278.19;4975720;28;20045;-61
2023/10/11 00:37:45;;;;;;;8.15;3.55;;;;;;;24.92;42.59;101276.47;4991033;28;20053;-61
2023/10/11 00:40:14;;;;;;;7.63;2.70;;;;;;;24.92;42.69;101276.47;4991620;28;20085;-61
2023/10/11 00:42:40;;;;;;;15.05;3.22;;;;;;;24.93;42.34;101278.19;4991415;28;20049;-61
2023/10/11 00:45:08;;;;;;;6.00;3.10;;;;;;;24.94;42.87;101285.31;4991750;28;20039;-61
2023/10/11 00:47:40;;;;;;;10.88;3.28;;;;;;;24.94;42.41;101283.44;4975626;28;20507;-61
2023/10/11 00:50:09;;;;;;;12.90;3.10;;;;;;;24.99;42.54;101288.28;4975574;28;20043;-61
2023/10/11 00:52:34;;;;;;;15.43;3.30;;;;;;;24.99;42.26;101288.28;4991739;28;20525;-63
2023/10/11 00:55:08;;;;;;;11.15;3.67;;;;;;;25.01;42.78;101288.94;4976735;28;20038;-61
2023/10/11 00:57:34;;;;;;;5.03;2.75;;;;;;;25.03;42.62;101290.41;4990378;28;20047;-61
2023/10/11 01:00:00;;;;;;;6.55;2.97;;;;;;;25.03;42.58;101289.53;4974981;28;20047;-62
2023/10/11 01:02:27;;;;;;;8.90;2.85;;;;;;;25.02;42.74;101285.97;4975149;28;20081;-61
2023/10/11 01:04:53;;;;;;;11.90;3.10;;;;;;;25.03;42.65;101286.81;4975205;28;20035;-62
2023/10/11 01:07:19;;;;;;;5.93;3.00;;;;;;;24.99;42.69;101274.56;4974463;28;20499;-61
2023/10/11 01:09:45;;;;;;;11.38;4.15;;;;;;;24.97;43.03;101271.19;4958722;28;20082;-61
2023/10/11 01:12:10;;;;;;;6.68;3.35;;;;;;;24.92;42.73;101271.84;4991254;28;20026;-61
2023/10/11 01:14:38;;;;;;;13.55;3.38;;;;;;;24.88;42.56;101267.81;4991182;28;20035;-61
2023/10/11 01:17:03;;;;;;;6.28;2.88;;;;;;;24.84;42.71;101266.59;4990679;28;20110;-62
2023/10/11 01:19:29;;;;;;;6.20;2.90;;;;;;;24.77;42.58;101255.59;4974767;28;20122;-61
2023/10/11 01:21:59;;;;;;;9.55;3.25;;;;;;;24.77;43.09;101262.94;4973669;28;20042;-61
2023/10/11 01:24:24;;;;;;;8.32;3.83;;;;;;;24.75;42.73;101265.91;4974905;28;20027;-62
2023/10/11 01:26:49;;;;;;;8.90;3.83;;;;;;;24.74;42.83;101258.75;4974660;28;20061;-61
2023/10/11 01:29:15;;;;;;;11.45;3.35;;;;;;;24.70;42.82;101262.97;4990936;28;20046;-62
2023/10/11 01:31:41;;;;;;;11.77;3.58;;;;;;;24.71;42.77;101264.66;4990413;28;20388;-63
2023/10/11 01:34:13;;;;;;;9.02;4.20;;;;;;;24.69;43.24;101261.28;4974481;28;20070;-61
2023/10/11 01:36:39;;;;;;;9.07;3.50;;;;;;;24.70;43.01;101256.66;4975657;28;20158;-61
2023/10/11 01:39:07;;;;;;;12.90;3.50;;;;;;;24.69;43.06;101250.31;4990474;28;20034;-61
2023/10/11 01:41:33;;;;;;;17.35;4.10;;;;;;;24.67;43.35;101255.16;4989315;28;20034;-61
2023/10/11 01:43:58;;;;;;;8.75;3.08;;;;;;;24.66;42.98;101250.72;4975805;28;20022;-61
2023/10/11 01:46:26;;;;;;;6.85;3.25;;;;;;;24.62;43.12;101246.72;4990793;28;20081;-61
2023/10/11 01:48:55;;;;;;;11.77;3.38;;;;;;;24.58;42.96;101241.88;4990381;28;20018;-62
2023/10/11 01:51:27;;;;;;;10.05;4.03;;;;;;;24.54;43.08;101232.41;4990528;28;20043;-61
2023/10/11 01:53:57;;;;;;;6.75;2.60;;;;;;;24.51;43.29;101233.66;4989812;28;20039;-61
2023/10/11 01:56:23;;;;;;;10.05;3.60;;;;;;;24.48;42.93;101242.31;4990381;28;20043;-61
2023/10/11 01:58:50;;;;;;;9.68;3.30;;;;;;;24.46;42.72;101229.84;4974007;28;20569;-60
2023/10/11 02:01:22;;;;;;;10.63;3.60;;;;;;;24.46;43.03;101232.59;4974152;28;20077;-61
2023/10/11 02:03:53;;;;;;;13.23;4.35;;;;;;;24.44;42.99;101230.06;4975421;28;20035;-62
2023/10/11 02:06:19;;;;;;;7.73;3.03;;;;;;;24.42;43.58;101236.81;4975301;28;20442;-61
2023/10/11 02:08:45;;;;;;;11.40;4.03;;;;;;;24.39;43.33;101227.13;4974260;28;20285;-61
2023/10/11 02:11:10;;;;;;;9.18;4.43;;;;;;;24.40;43.10;101233.47;4990054;28;20103;-61
2023/10/11 02:13:39;;;;;;;8.68;3.30;;;;;;;24.38;42.96;101230.06;4989132;28;20049;-61
2023/10/11 02:16:09;;;;;;;12.10;3.85;;;;;;;24.34;43.00;101222.25;4989880;28;20117;-61
2023/10/11 02:18:35;;;;;;;9.02;3.55;;;;;;;24.37;42.86;101225.66;4989266;28;20035;-61
2023/10/11 02:21:06;;;;;;;11.05;3.45;;;;;;;24.36;43.14;101223.97;4957632;28;20037;-61
2023/10/11 02:23:37;;;;;;;9.07;3.67;;;;;;;24.30;43.41;101214.69;4989237;28;20042;-61
2023/10/11 02:26:04;;;;;;;11.43;3.38;;;;;;;24.30;43.10;101209.22;4989056;28;20046;-62
2023/10/11 02:28:29;;;;;;;8.77;3.22;;;;;;;24.27;43.21;101206.88;4989671;28;20039;-62
2023/10/11 02:30:55;;;;;;;6.90;3.17;;;;;;;24.20;43.24;101195.09;4973448;28;20041;-61
2023/10/11 02:33:22;;;;;;;7.85;3.17;;;;;;;24.17;43.34;101201.00;4989690;28;20097;-62
2023/10/11 02:35:56;;;;;;;12.73;3.60;;;;;;;24.13;42.82;101195.06;4989702;28;20038;-62
2023/10/11 02:38:23;;;;;;;12.50;3.05;;;;;;;24.10;43.22;101195.50;4988622;28;20117;-62
2023/10/11 02:40:55;;;;;;;12.75;3.17;;;;;;;24.11;42.71;101207.28;4974893;28;20046;-61
2023/10/11 02:43:24;;;;;;;8.15;3.10;;;;;;;24.10;43.10;101200.97;4989911;28;20039;-61
2023/10/11 02:45:50;;;;;;;7.30;3.50;;;;;;;24.10;43.11;101197.38;4974003;28;20038;-61
2023/10/11 02:48:19;;;;;;;9.80;3.97;;;;;;;24.09;43.67;101206.63;4989272;28;20376;-62
2023/10/11 02:50:46;;;;;;;6.63;3.35;;;;;;;24.09;43.78;101207.47;4973392;28;20061;-62
2023/10/11 02:53:22;;;;;;;11.70;3.38;;;;;;;24.10;42.71;101211.91;4973181;28;20043;-61
2023/10/11 02:55:57;;;;;;;7.85;3.05;;;;;;;24.07;43.03;101214.19;4972859;28;20051;-62
2023/10/11 02:58:24;;;;;;;8.57;3.13;;;;;;;24.08;43.51;101208.53;4988229;28;20130;-62
2023/10/11 03:00:56;;;;;;;11.65;3.25;;;;;;;24.09;43.33;101203.91;4989317;28;20089;-62
2023/10/11 03:03:21;;;;;;;13.10;2.83;;;;;;;24.07;43.71;101200.50;4974400;28;20517;-61
2023/10/11 03:05:48;;;;;;;18.10;3.05;;;;;;;24.06;43.42;101204.31;4989419;28;20039;-61
2023/10/11 03:08:14;;;;;;;9.02;3.80;;;;;;;24.10;43.12;101205.59;4973141;28;20034;-62
2023/10/11 03:10:57;;;;;;;6.63;2.80;;;;;;;24.10;43.29;101197.38;4973177;28;20043;-61
2023/10/11 03:13:24;;;;;;;14.10;3.78;;;;;;;24.09;43.45;101206.63;4974057;28;20043;-62
2023/10/11 03:15:55;;;;;;;8.45;2.88;;;;;;;24.07;43.48;101195.03;4989203;28;20027;-62
2023/10/11 03:18:32;;;;;;;9.43;4.03;;;;;;;24.06;43.46;101193.38;4972738;28;20043;-60
2023/10/11 03:21:07;;;;;;;8.20;2.25;;;;;;;24.07;42.56;101195.88;4989198;28;20046;-61
2023/10/11 03:23:43;;;;;;;6.13;2.65;;;;;;;24.08;42.92;101194.84;4973596;28;20462;-62
2023/10/11 03:29:04;;;;;;;7.15;3.22;;;;;;;24.10;43.01;101194.66;4987641;28;20039;-61
2023/10/11 03:31:31;;;;;;;12.32;4.47;;;;;;;24.06;42.84;101187.88;4991021;28;20125;-62
2023/10/11 03:34:10;;;;;;;9.70;3.75;;;;;;;24.09;42.70;101184.72;4992976;28;20042;-61
2023/10/11 03:36:43;;;;;;;13.07;4.85;;;;;;;24.07;42.81;101173.97;4977174;28;20042;-62
2023/10/11 03:39:09;;;;;;;11.32;3.30;;;;;;;24.07;42.64;101171.25;4978854;28;20027;-62
2023/10/11 03:41:45;;;;;;;14.60;3.05;;;;;;;24.08;42.79;101177.56;4977096;28;20161;-62
2023/10/11 03:44:20;;;;;;;10.27;2.97;;;;;;;24.06;43.05;101163.25;4992417;28;20106;-61
2023/10/11 03:46:48;;;;;;;7.82;2.85;;;;;;;24.03;42.49;101161.78;4976655;28;20039;-62
2023/10/11 03:51:43;;;;;;;12.05;3.45;;;;;;;24.01;42.09;101160.31;4992755;28;20127;-62
2023/10/11 03:54:18;;;;;;;12.23;3.42;;;;;;;24.03;42.72;101166.41;4992815;28;20223;-62
2023/10/11 03:56:46;;;;;;;11.68;3.70;;;;;;;24.04;42.41;101159.84;4991982;28;20061;-61
2023/10/11 03:59:15;;;;;;;7.13;3.05;;;;;;;24.05;41.92;101153.34;4992252;28;20114;-61
2023/10/11 04:01:43;;;;;;;6.18;2.85;;;;;;;24.03;42.29;101155.44;4976609;28;20487;-61
2023/10/11 04:04:08;;;;;;;8.50;2.88;;;;;;;24.02;41.85;101151.03;4976404;28;20057;-61
2023/10/11 04:06:34;;;;;;;9.60;4.13;;;;;;;24.01;42.25;101147.44;4992507;28;20475;-61
2023/10/11 04:09:03;;;;;;;9.05;2.80;;;;;;;24.02;42.08;101153.75;4976149;28;20087;-61
2023/10/11 04:11:54;;;;;;;8.95;3.38;;;;;;;24.02;41.88;101151.88;4977527;28;20031;-61
2023/10/11 04:17:06;;;;;;;9.52;2.70;;;;;;;23.98;41.74;101182.63;4990199;28;20037;-61
2023/10/11 04:19:31;;;;;;;6.50;2.97;;;;;;;23.97;41.69;101178.19;4977685;28;20525;-61
2023/10/11 04:21:57;;;;;;;8.82;3.42;;;;;;;23.96;42.54;101181.94;4976495;28;20035;-62
2023/10/11 04:24:23;;;;;;;5.13;2.75;;;;;;;23.95;42.27;101172.94;4976278;28;20112;-61
2023/10/11 04:27:17;;;;;;;4.53;2.58;;;;;;;23.95;42.20;101175.66;4992642;28;20236;-61
2023/10/11 04:29:40;;;;;;;7.28;2.72;;;;;;;23.97;42.43;101178.19;4989041;28;20035;-61
2023/10/11 04:32:13;;;;;;;7.43;3.10;;;;;;;23.96;42.56;101174.59;4992395;28;20105;-61
2023/10/11 04:34:45;;;;;;;6.78;2.65;;;;;;;23.97;41.73;101183.66;4976120;28;20062;-61
2023/10/11 04:37:17;;;;;;;9.38;3.13;;;;;;;23.92;41.88;101170.59;4977294;28;20046;-61
2023/10/11 04:39:56;;;;;;;9.68;2.65;;;;;;;23.92;42.08;101167.88;4991389;28;20039;-61
2023/10/11 04:42:27;;;;;;;8.40;3.42;;;;;;;23.92;42.37;101164.28;4989181;28;20104;-61
2023/10/11 04:44:56;;;;;;;6.20;2.28;;;;;;;23.91;41.51;101170.78;4975930;28;20038;-61
2023/10/11 04:47:23;;;;;;;8.02;2.70;;;;;;;23.89;42.27;101167.44;4990803;28;20414;-61
2023/10/11 04:49:52;;;;;;;7.35;2.72;;;;;;;23.87;42.26;101166.81;4992200;28;20530;-61
2023/10/11 04:52:23;;;;;;;10.10;3.00;;;;;;;23.86;41.87;101170.56;4976763;28;20089;-60
2023/10/11 04:54:55;;;;;;;12.77;2.80;;;;;;;23.86;41.53;101181.53;4991001;28;20035;-61
2023/10/11 04:58:09;;;;;;;6.20;2.43;;;;;;;23.83;42.02;101176.47;4990571;28;20054;-61
2023/10/11 05:00:11;;;;;;;6.80;2.33;;;;;;;23.84;41.74;101175.44;4985659;28;20454;-61
2023/10/11 05:02:38;;;;;;;6.55;2.53;;;;;;;23.87;41.34;101175.81;4975376;28;20391;-61
2023/10/11 05:05:05;;;;;;;8.30;3.13;;;;;;;23.87;42.24;101189.50;4974573;28;20503;-62
2023/10/11 05:07:32;;;;;;;7.13;2.67;;;;;;;23.85;41.98;101180.69;4975092;28;20046;-61
2023/10/11 05:12:44;;;;;;;5.38;3.40;;;;;;;23.83;41.69;101187.41;4976300;28;20038;-61
2023/10/11 05:15:10;;;;;;;8.88;3.17;;;;;;;23.84;41.80;101180.91;4974926;28;20034;-61
2023/10/11 05:17:39;;;;;;;8.30;3.08;;;;;;;23.82;41.57;101172.88;4991182;28;20490;-60
2023/10/11 05:22:49;;;;;;;7.25;2.65;;;;;;;23.80;41.15;101169.50;4991078;28;20027;-61
2023/10/11 05:28:21;;;;;;;11.00;3.33;;;;;;;23.77;41.08;101173.50;4976017;28;20470;-61
2023/10/11 05:31:00;;;;;;;7.75;2.17;;;;;;;23.73;41.49;101155.81;4975942;28;20403;-61
2023/10/11 05:36:31;;;;;;;5.38;2.20;;;;;;;23.76;40.96;101166.34;4977567;28;20497;-61
2023/10/11 05:52:35;;;;;;;10.02;3.15;;;;;;;23.74;41.05;101151.19;4975870;28;20049;-63
2023/10/11 05:55:06;;;;;;;9.13;2.92;;;;;;;23.73;41.67;101150.34;4975479;28;20117;-61
2023/10/11 05:57:31;;;;;;;10.90;2.30;;;;;;;23.74;41.40;101157.50;4975433;28;20113;-61
2023/10/11 06:00:02;;;;;;;9.68;2.70;;;;;;;23.75;41.14;101158.34;4975656;28;20027;-61
2023/10/11 06:02:28;;;;;;;6.85;2.53;;;;;;;23.76;41.87;101155.41;4974099;28;20047;-61
2023/10/11 06:04:55;;;;;;;8.68;3.65;;;;;;;23.80;41.33;101155.84;4990419;28;20049;-62
2023/10/11 06:07:21;;;;;;;4.20;2.13;;;;;;;23.81;41.28;101164.88;4973876;28;20026;-62
2023/10/11 06:09:46;;;;;;;8.40;2.67;;;;;;;23.86;41.04;101181.53;4973976;28;20078;-62
2023/10/11 06:12:28;;;;;;;4.78;2.33;;;;;;;23.90;40.83;101171.88;4990220;28;20027;-61
2023/10/11 06:14:54;;;;;;;10.73;4.05;;;;;;;23.96;40.86;101173.75;4973996;28;20583;-61
2023/10/11 06:17:32;;;;;;;12.27;2.63;;;;;;;24.01;41.09;101171.25;4973798;28;20070;-62
2023/10/11 06:20:10;;;;;;;9.50;2.40;;;;;;;24.05;41.24;101181.56;4973584;28;20042;-61
2023/10/11 06:22:36;;;;;;;9.00;2.70;;;;;;;24.12;40.48;101196.13;4973621;28;20049;-61
2023/10/11 06:25:07;;;;;;;5.50;2.20;;;;;;;24.16;41.18;101191.06;4973483;28;20117;-61
2023/10/11 06:30:17;;;;;;;14.13;3.05;;;;;;;24.27;41.47;101190.47;4974861;28;20082;-61
2023/10/11 06:32:42;;;;;;;8.50;2.72;;;;;;;24.35;41.31;101192.97;4973411;28;20454;-61
2023/10/11 06:35:08;;;;;;;10.23;2.83;;;;;;;24.38;41.35;101200.78;4989739;28;20458;-61
2023/10/11 06:37:36;;;;;;;7.28;2.50;;;;;;;24.42;40.86;101210.28;4989469;28;20046;-62
2023/10/11 06:42:31;;;;;;;11.02;3.13;;;;;;;24.57;40.88;101215.53;4989687;28;20031;-61
2023/10/11 06:44:58;;;;;;;7.50;2.67;;;;;;;24.65;40.47;101220.81;4973502;28;20415;-61
2023/10/11 06:47:25;;;;;;;8.13;2.72;;;;;;;24.72;41.01;101211.53;4973190;28;20031;-61
2023/10/11 06:49:55;;;;;;;6.25;2.42;;;;;;;24.80;40.51;101216.81;4989109;28;20035;-61
2023/10/11 06:52:31;;;;;;;7.70;2.80;;;;;;;24.87;40.23;101206.69;4989318;28;20047;-61
2023/10/11 06:57:41;;;;;;;13.35;3.90;;;;;;;24.97;40.23;101192.53;4987020;28;20109;-61
2023/10/11 07:00:12;;;;;;;9.00;3.10;;;;;;;25.02;40.09;101200.13;4972736;28;20499;-62
2023/10/11 07:02:47;;;;;;;5.68;3.10;;;;;;;25.05;40.41;101206.03;4974320;28;20122;-61
2023/10/11 07:05:17;;;;;;;6.20;2.63;;;;;;;25.10;39.92;101211.69;4973140;28;20392;-61
2023/10/11 07:07:52;;;;;;;6.78;2.53;;;;;;;25.21;40.58;101210.22;4974174;28;20023;-62
2023/10/11 07:10:31;;;;;;;9.02;3.03;;;;;;;25.31;39.85;101205.09;4973104;28;20022;-62
2023/10/11 07:13:03;;;;;;;9.38;2.60;;;;;;;25.42;39.84;101202.53;4972818;28;20031;-61
2023/10/11 07:15:48;;;;;;;9.82;2.70;;;;;;;25.44;39.96;101183.09;4972936;28;20062;-62
2023/10/11 07:19:01;;;;;;;7.32;3.35;;;;;;;25.65;39.54;101199.31;4988895;28;20041;-61
2023/10/11 07:21:08;;;;;;;7.97;3.35;;;;;;;25.81;39.31;101193.31;4971210;28;20411;-62
2023/10/11 07:26:48;;;;;;;12.48;2.65;;;;;;;26.10;39.44;101183.63;4987206;28;20178;-61
2023/10/11 07:29:09;;;;;;;6.97;2.55;;;;;;;26.25;39.00;101191.56;4973904;28;20035;-62
2023/10/11 07:31:50;;;;;;;12.60;2.53;;;;;;;26.35;39.20;101181.78;4972735;28;20517;-61
2023/10/11 07:34:20;;;;;;;12.40;2.80;;;;;;;26.54;38.90;101188.16;4986718;28;20148;-61
2023/10/11 07:36:48;;;;;;;7.15;2.83;;;;;;;26.67;38.51;101190.78;4988414;28;20084;-61
2023/10/11 07:39:19;;;;;;;11.73;2.90;;;;;;;26.81;38.30;101189.63;4972550;28;20026;-62
2023/10/11 07:41:45;;;;;;;5.72;2.65;;;;;;;26.95;38.04;101188.41;4988451;28;20483;-62
2023/10/11 07:44:11;;;;;;;7.13;2.42;;;;;;;27.07;37.60;101189.34;4972350;28;20047;-61
2023/10/11 07:46:40;;;;;;;4.88;2.33;;;;;;;27.27;38.22;101185.53;4972718;28;20109;-61
2023/10/11 07:49:14;;;;;;;7.75;2.65;;;;;;;27.40;38.33;101191.69;4988502;28;20034;-61
2023/10/11 07:51:39;;;;;;;6.82;2.28;;;;;;;27.53;37.88;101196.22;4988347;28;20038;-61
2023/10/11 07:54:07;;;;;;;8.77;3.22;;;;;;;27.62;37.91;101194.84;4974096;28;20051;-62
2023/10/11 07:56:36;;;;;;;9.45;3.08;;;;;;;27.69;37.38;101184.59;4972278;28;20043;-61
2023/10/11 07:59:08;;;;;;;8.93;2.65;;;;;;;27.89;37.63;101190.63;4988510;28;20043;-61
2023/10/11 08:01:44;;;;;;;7.40;3.15;;;;;;;28.08;37.37;101199.72;4988491;28;20035;-61
2023/10/11 08:04:17;;;;;;;8.93;2.92;;;;;;;28.22;37.34;101196.56;4973864;28;20498;-62
2023/10/11 08:06:46;;;;;;;9.38;2.83;;;;;;;28.34;37.78;101199.31;4988114;28;20085;-61
2023/10/11 08:09:21;;;;;;;6.75;3.50;;;;;;;28.45;37.34;101201.25;4988631;28;20039;-61
2023/10/11 08:11:52;;;;;;;7.63;2.47;;;;;;;28.53;36.95;101198.13;4987254;28;20035;-62
2023/10/11 08:14:22;;;;;;;8.90;2.53;;;;;;;28.64;37.37;101210.31;4987685;28;20503;-62
2023/10/11 08:16:51;;;;;;;7.57;3.03;;;;;;;28.78;36.99;101206.25;4973497;28;20034;-62
2023/10/11 08:19:17;;;;;;;10.30;3.00;;;;;;;28.89;36.37;101210.91;4977341;28;20406;-61
2023/10/11 08:21:50;;;;;;;7.43;2.60;;;;;;;29.02;36.68;101224.47;4975822;28;20109;-61
2023/10/11 08:24:16;;;;;;;14.90;3.35;;;;;;;29.14;36.71;101210.66;4991967;28;20066;-62
2023/10/11 08:26:45;;;;;;;12.43;2.72;;;;;;;29.27;36.19;101211.25;4975699;28;20522;-64
2023/10/11 08:29:32;;;;;;;4.22;2.45;;;;;;;29.40;36.80;101216.50;4990048;28;20576;-64
2023/10/11 08:31:58;;;;;;;10.40;2.65;;;;;;;29.55;36.10;101215.16;4975578;28;20031;-63
2023/10/11 08:34:28;;;;;;;10.13;3.10;;;;;;;29.68;35.64;101207.41;4992068;28;20053;-63
2023/10/11 08:36:54;;;;;;;10.27;3.10;;;;;;;29.78;36.10;101212.31;4960055;28;20030;-63
2023/10/11 08:39:27;;;;;;;8.70;3.33;;;;;;;29.86;35.81;101215.56;4991660;28;20034;-63
2023/10/11 08:41:58;;;;;;;5.25;3.03;;;;;;;30.06;35.33;101215.13;4975499;28;20034;-63
2023/10/11 08:44:26;;;;;;;5.95;2.45;;;;;;;30.18;35.75;101212.28;4975621;28;20034;-63
2023/10/11 08:46:52;;;;;;;6.38;3.03;;;;;;;30.33;35.09;101207.84;4975358;28;20098;-63
2023/10/11 08:49:17;;;;;;;13.13;3.17;;;;;;;30.46;35.34;101206.72;4991538;28;20026;-63
2023/10/11 08:51:44;;;;;;;7.78;2.95;;;;;;;30.57;35.51;101191.97;4975512;28;20101;-63
2023/10/11 08:54:25;;;;;;;5.07;2.50;;;;;;;30.69;34.93;101203.78;4991514;28;20031;-64
2023/10/11 08:56:54;;;;;;;11.25;3.28;;;;;;;30.90;34.98;101205.78;4989910;28;20027;-63
2023/10/11 08:59:25;;;;;;;15.70;3.50;;;;;;;31.00;34.63;101205.97;4975010;28;20042;-64
2023/10/11 09:01:53;;;;;;;11.98;3.33;;;;;;;31.04;34.81;101200.75;4976542;28;20510;-64
2023/10/11 09:04:19;;;;;;;9.98;3.13;;;;;;;31.15;34.63;101202.56;4991214;28;20063;-62
2023/10/11 09:06:45;;;;;;;10.30;3.60;;;;;;;31.29;34.34;101192.81;4975228;28;20061;-62
2023/10/11 09:09:34;;;;;;;9.13;3.13;;;;;;;31.45;34.05;101196.59;4976313;28;20037;-61
2023/10/11 09:11:59;;;;;;;8.57;2.80;;;;;;;31.70;33.96;101206.09;4991073;28;20038;-63
2023/10/11 09:14:27;;;;;;;9.75;3.35;;;;;;;32.03;33.54;101209.78;4991198;28;20085;-61
2023/10/11 09:17:02;;;;;;;7.97;2.80;;;;;;;32.44;33.09;101206.28;4991025;28;20086;-61
2023/10/11 09:19:28;;;;;;;5.88;2.42;;;;;;;33.41;32.84;101208.69;4990897;28;20031;-64
2023/10/11 09:22:04;;;;;;;5.22;3.35;;;;;;;34.39;31.88;101201.19;4974818;28;20118;-63
2023/10/11 09:24:41;;;;;;;6.28;2.97;;;;;;;34.16;31.48;101201.72;4976174;28;20185;-63
2023/10/11 09:29:52;;;;;;;9.07;2.90;;;;;;;34.04;31.39;101206.66;4989202;28;20035;-63
2023/10/11 09:32:19;;;;;;;7.20;2.55;;;;;;;34.20;31.73;101203.66;4975669;28;20451;-63
2023/10/11 09:34:51;;;;;;;11.02;3.10;;;;;;;34.41;31.65;101204.53;4990765;28;20046;-63
2023/10/11 09:37:16;;;;;;;8.68;2.75;;;;;;;34.51;31.70;101205.34;4974494;28;20031;-62
2023/10/11 09:39:45;;;;;;;6.97;3.05;;;;;;;34.71;30.89;101220.41;4990756;28;20510;-65
2023/10/11 09:42:13;;;;;;;7.32;3.05;;;;;;;34.98;31.00;101220.94;4990115;28;20034;-62
2023/10/11 09:44:45;;;;;;;9.65;4.25;;;;;;;35.13;30.11;101209.78;4975465;28;20114;-63
2023/10/11 09:47:16;;;;;;;5.03;2.80;;;;;;;35.34;30.67;101211.41;4989306;28;20418;-63
2023/10/11 09:49:42;;;;;;;8.10;2.60;;;;;;;35.59;30.10;101204.94;4975281;28;20031;-62
2023/10/11 09:52:11;;;;;;;5.82;2.78;;;;;;;35.79;30.19;101204.81;4990300;28;20056;-62
2023/10/11 09:54:37;;;;;;;7.38;3.47;;;;;;;35.73;29.55;101200.41;4974322;28;20391;-62
2023/10/11 09:57:24;;;;;;;8.85;2.75;;;;;;;35.93;29.90;101211.41;4990178;28;20053;-63
2023/10/11 10:00:14;;;;;;;5.70;3.13;;;;;;;36.28;29.46;101206.75;4975144;28;20058;-62
2023/10/11 10:02:44;;;;;;;12.25;2.70;;;;;;;36.55;29.19;101201.50;4975187;28;20151;-62
2023/10/11 10:05:10;;;;;;;11.25;3.22;;;;;;;36.85;29.19;101201.25;4989661;28;20046;-62
2023/10/11 10:07:45;;;;;;;10.90;2.63;;;;;;;37.02;28.63;101207.22;4990032;28;20031;-63
2023/10/11 10:10:26;;;;;;;8.45;2.42;;;;;;;37.14;28.76;101216.03;4988941;28;20035;-62
2023/10/11 10:12:55;;;;;;;10.23;3.33;;;;;;;37.20;28.47;101214.88;4974987;28;20034;-63
2023/10/11 10:15:23;;;;;;;5.30;2.42;;;;;;;37.31;28.41;101222.00;4974945;28;20073;-62
2023/10/11 10:18:00;;;;;;;5.95;3.25;;;;;;;37.38;27.90;101220.81;4973873;28;20051;-63
2023/10/11 10:20:43;;;;;;;9.27;3.25;;;;;;;37.18;28.68;101221.88;4974739;28;20547;-63
2023/10/11 10:23:15;;;;;;;6.68;2.95;;;;;;;37.02;28.55;101224.00;4973510;28;20131;-63
2023/10/11 10:25:46;;;;;;;7.53;2.88;;;;;;;36.99;28.22;101226.56;4974974;28;20491;-63
2023/10/11 10:28:34;;;;;;;9.32;3.13;;;;;;;36.88;28.26;101228.56;4989237;28;20578;-63
2023/10/11 10:31:16;;;;;;;6.55;2.92;;;;;;;36.82;28.14;101221.41;4974620;28;20030;-63
2023/10/11 10:33:43;;;;;;;10.40;3.30;;;;;;;36.87;28.37;101218.53;4989078;28;20064;-63
2023/10/11 10:36:17;;;;;;;11.55;4.20;;;;;;;37.08;28.29;101228.41;4989706;28;20055;-62
2023/10/11 10:39:00;;;;;;;15.27;2.75;;;;;;;37.26;27.81;101224.88;4974427;28;20043;-63
2023/10/11 10:41:30;;;;;;;6.50;3.22;;;;;;;37.42;28.11;101216.28;4974584;28;20408;-62
2023/10/11 10:44:18;;;;;;;12.68;2.47;;;;;;;37.58;27.75;101220.59;4989475;28;20501;-63
2023/10/11 10:46:59;;;;;;;12.77;3.97;;;;;;;37.68;27.28;101217.66;4987738;28;20046;-63
2023/10/11 10:49:47;;;;;;;10.40;3.03;;;;;;;37.62;27.75;101216.91;4988866;28;20031;-62
2023/10/11 10:52:20;;;;;;;7.35;3.10;;;;;;;37.67;27.21;101218.78;4989454;28;20043;-63
2023/10/11 10:55:05;;;;;;;11.40;2.72;;;;;;;37.67;27.28;101215.97;4973082;28;20039;-63
2023/10/11 10:57:36;;;;;;;4.45;2.55;;;;;;;37.66;27.11;101229.13;4972483;28;20047;-62
2023/10/11 11:00:25;;;;;;;10.57;3.22;;;;;;;37.62;27.61;101210.47;4989113;28;20061;-62
2023/10/11 11:02:52;;;;;;;12.43;2.97;;;;;;;37.63;27.46;101206.53;4986831;28;20121;-63
2023/10/11 11:05:24;;;;;;;16.48;4.35;;;;;;;37.65;27.15;101199.50;4989151;28;20053;-61
2023/10/11 11:07:50;;;;;;;11.90;3.05;;;;;;;37.83;26.87;101200.69;4972860;28;20043;-62
2023/10/11 11:10:19;;;;;;;12.00;3.10;;;;;;;37.98;26.79;101192.06;4971931;28;20043;-62
2023/10/11 11:12:45;;;;;;;13.85;3.17;;;;;;;38.03;26.59;101193.94;4989191;28;20039;-63
2023/10/11 11:15:13;;;;;;;7.63;2.88;;;;;;;38.27;26.52;101189.94;4974300;28;20039;-62
2023/10/11 11:17:47;;;;;;;10.63;3.63;;;;;;;38.42;27.20;101180.47;4972843;28;20046;-62
2023/10/11 11:20:14;;;;;;;7.30;2.53;;;;;;;38.54;27.06;101188.38;4988835;28;20050;-62
2023/10/11 11:22:46;;;;;;;8.25;2.67;;;;;;;38.64;27.00;101188.22;4988701;28;20128;-62
2023/10/11 11:25:34;;;;;;;8.95;3.50;;;;;;;38.81;27.01;101185.66;4988711;28;20035;-62
2023/10/11 11:28:26;;;;;;;9.75;2.70;;;;;;;38.88;26.63;101194.53;4973263;28;20050;-62
2023/10/11 11:30:52;;;;;;;13.38;2.50;;;;;;;38.81;26.46;101182.88;4972607;28;20027;-62
2023/10/11 11:33:47;;;;;;;8.10;3.67;;;;;;;38.81;26.14;101178.09;4972603;28;20050;-62
2023/10/11 11:36:22;;;;;;;15.63;3.53;;;;;;;39.01;25.53;101176.88;4979467;28;20065;-63
2023/10/11 11:38:48;;;;;;;12.15;2.45;;;;;;;38.87;26.47;101176.03;4972506;28;20031;-62
2023/10/11 11:41:17;;;;;;;9.82;3.28;;;;;;;38.80;26.13;101170.84;4972662;28;20034;-62
2023/10/11 11:43:43;;;;;;;7.53;2.72;;;;;;;38.79;26.72;101171.16;4988277;28;20041;-62
2023/10/11 11:46:09;;;;;;;11.10;3.10;;;;;;;38.89;26.02;101168.97;4988764;28;20050;-62
2023/10/11 11:48:41;;;;;;;8.68;2.90;;;;;;;38.93;26.49;101163.59;4988721;28;20035;-63
2023/10/11 11:51:16;;;;;;;8.27;2.85;;;;;;;38.93;26.17;101160.78;4974101;28;20038;-62
2023/10/11 11:53:43;;;;;;;11.82;3.25;;;;;;;38.92;26.34;101162.75;4991861;28;20093;-62
2023/10/11 11:56:11;;;;;;;8.48;3.53;;;;;;;38.97;25.67;101162.69;4976250;28;20026;-62
2023/10/11 11:58:46;;;;;;;8.27;3.05;;;;;;;39.01;26.60;101160.06;4991921;28;20046;-62
2023/10/11 12:01:17;;;;;;;12.95;3.05;;;;;;;39.03;26.52;101152.19;4991751;28;20053;-62
2023/10/11 12:03:43;;;;;;;7.60;2.60;;;;;;;39.09;25.26;101155.72;4977607;28;20495;-63
2023/10/11 12:06:21;;;;;;;11.90;3.60;;;;;;;39.08;25.64;101154.88;4992429;28;20137;-63
2023/10/11 12:08:59;;;;;;;5.70;2.45;;;;;;;39.07;26.08;101146.75;4975905;28;20066;-63
2023/10/11 12:11:28;;;;;;;7.32;3.50;;;;;;;39.02;26.50;101144.91;4974568;28;20034;-63
2023/10/11 12:13:58;;;;;;;13.45;3.40;;;;;;;38.91;26.11;101137.84;4992036;28;20518;-63
2023/10/11 12:16:24;;;;;;;7.60;2.78;;;;;;;38.87;25.67;101134.00;4977157;28;20035;-63
2023/10/11 12:18:52;;;;;;;14.95;4.07;;;;;;;38.73;26.14;101127.50;4992034;28;20062;-63
2023/10/11 12:21:17;;;;;;;18.10;3.17;;;;;;;38.58;26.39;101127.81;4992005;28;20057;-63
2023/10/11 12:23:46;;;;;;;7.90;3.80;;;;;;;38.39;26.25;101125.06;4992063;28;20511;-63